createdAt,value
2019-01-21T00:00:58.182Z,-4.42
2019-01-21T00:06:32.801Z,-4.41
2019-01-21T00:11:50.728Z,-4.22
2019-01-21T00:17:08.628Z,-4.08
2019-01-21T00:22:26.154Z,-3.92
2019-01-21T00:27:43.906Z,-3.84
2019-01-21T00:33:01.095Z,-3.80
2019-01-21T00:38:18.679Z,-3.82
2019-01-21T00:43:36.328Z,-3.95
2019-01-21T00:48:54.570Z,-4.19
2019-01-21T00:54:11.584Z,-4.37
2019-01-21T00:59:29.209Z,-4.54
2019-01-21T01:04:46.443Z,-4.70
2019-01-21T01:10:04.529Z,-4.86
2019-01-21T01:15:22.904Z,-5.01
2019-01-21T01:20:47.138Z,-5.29
2019-01-21T01:26:04.242Z,-5.40
2019-01-21T01:31:22.340Z,-5.47
2019-01-21T01:36:39.332Z,-5.61
2019-01-21T01:41:57.307Z,-5.76
2019-01-21T01:47:14.530Z,-5.91
2019-01-21T01:52:32.670Z,-6.08
2019-01-21T01:57:49.758Z,-6.22
2019-01-21T02:03:07.245Z,-6.30
2019-01-21T02:08:24.789Z,-6.49
2019-01-21T02:13:42.011Z,-6.55
2019-01-21T02:18:59.375Z,-6.71
2019-01-21T02:24:16.543Z,-6.76
2019-01-21T02:29:48.111Z,-6.84
2019-01-21T02:35:21.660Z,-6.95
2019-01-21T02:40:57.366Z,-7.06
2019-01-21T02:46:52.876Z,-7.09
2019-01-21T02:52:21.695Z,-7.41
2019-01-21T02:57:45.262Z,-7.40
2019-01-21T03:03:10.437Z,-7.43
2019-01-21T03:09:05.487Z,-7.61
2019-01-21T03:14:40.929Z,-7.58
2019-01-21T03:20:02.718Z,-7.75
2019-01-21T03:25:45.751Z,-7.77
2019-01-21T03:31:22.696Z,-7.65
2019-01-21T03:36:55.347Z,-7.77
2019-01-21T03:42:44.990Z,-7.85
2019-01-21T03:48:28.544Z,-7.91
2019-01-21T03:53:58.921Z,-7.98
2019-01-21T03:59:21.255Z,-7.89
2019-01-21T04:04:49.181Z,-7.84
2019-01-21T04:10:28.966Z,-7.77
2019-01-21T04:15:55.835Z,-7.91
2019-01-21T04:21:21.599Z,-7.99
2019-01-21T04:27:04.890Z,-7.98
2019-01-21T04:32:33.921Z,-8.00
2019-01-21T04:38:14.754Z,-7.78
2019-01-21T04:43:57.371Z,-7.79
2019-01-21T04:49:25.808Z,-7.56
2019-01-21T04:55:02.402Z,-7.55
2019-01-21T05:00:38.213Z,-7.44
2019-01-21T05:06:02.664Z,-7.28
2019-01-21T05:11:28.248Z,-7.19
2019-01-21T05:17:03.783Z,-7.16
2019-01-21T05:22:49.620Z,-7.09
2019-01-21T05:28:26.613Z,-7.08
2019-01-21T05:34:03.243Z,-7.08
2019-01-21T05:39:48.842Z,-7.42
2019-01-21T05:45:31.714Z,-7.43
2019-01-21T05:51:07.041Z,-7.47
2019-01-21T05:56:47.170Z,-7.67
2019-01-21T06:02:22.671Z,-7.52
2019-01-21T06:08:08.921Z,-7.41
2019-01-21T06:13:37.242Z,-7.37
2019-01-21T06:19:26.019Z,-7.37
2019-01-21T06:25:05.417Z,-7.34
2019-01-21T06:30:51.594Z,-7.45
2019-01-21T06:36:33.640Z,-7.80
2019-01-21T06:41:58.382Z,-7.75
2019-01-21T06:47:40.885Z,-7.77
2019-01-21T06:53:12.849Z,-7.81
2019-01-21T06:58:55.635Z,-7.89
2019-01-21T07:04:41.952Z,-8.00
2019-01-21T07:10:18.698Z,-8.06
2019-01-21T07:15:54.962Z,-8.11
2019-01-21T07:21:29.468Z,-8.02
2019-01-21T07:27:05.514Z,-8.11
2019-01-21T07:32:39.358Z,-8.22
2019-01-21T07:38:28.503Z,-8.12
2019-01-21T07:44:03.706Z,-7.82
2019-01-21T07:49:39.649Z,-7.39
2019-01-21T07:55:02.022Z,-7.12
2019-01-21T08:00:38.373Z,-6.94
2019-01-21T08:06:13.906Z,-6.66
2019-01-21T08:12:08.654Z,-6.38
2019-01-21T08:17:44.584Z,-6.24
2019-01-21T08:23:36.003Z,-6.02
2019-01-21T08:29:19.020Z,-5.71
2019-01-21T08:34:47.095Z,-5.61
2019-01-21T08:40:25.846Z,-5.48
2019-01-21T08:46:05.731Z,-5.46
2019-01-21T08:51:42.098Z,-4.97
2019-01-21T08:57:09.812Z,-4.53
2019-01-21T09:02:31.575Z,-4.37
2019-01-21T09:08:07.475Z,-4.08
2019-01-21T09:13:50.753Z,-3.91
2019-01-21T09:19:16.941Z,-3.75
2019-01-21T09:24:48.486Z,-3.39
2019-01-21T09:30:31.441Z,-3.09
2019-01-21T09:36:14.055Z,-2.79
2019-01-21T09:41:56.640Z,-2.46
2019-01-21T09:47:13.347Z,-2.21
2019-01-21T09:52:30.790Z,-2.05
2019-01-21T09:57:49.206Z,-1.84
2019-01-21T10:03:07.819Z,-1.51
2019-01-21T10:09:03.670Z,-1.03
2019-01-21T10:14:39.820Z,-0.62
2019-01-21T10:20:15.554Z,-0.27
2019-01-21T10:25:52.901Z,0.22
2019-01-21T10:31:28.123Z,0.32
2019-01-21T10:37:04.832Z,0.51
2019-01-21T10:42:45.637Z,0.88
2019-01-21T10:48:12.199Z,0.65
2019-01-21T10:53:48.115Z,1.61
2019-01-21T10:59:24.900Z,2.20
2019-01-21T11:05:01.276Z,3.64
2019-01-21T11:10:44.642Z,4.03
2019-01-21T11:16:07.549Z,2.58
2019-01-21T11:21:36.981Z,4.23
2019-01-21T11:27:01.016Z,4.17
2019-01-21T11:32:50.136Z,6.36
2019-01-21T11:38:38.929Z,5.58
2019-01-21T11:44:02.205Z,5.09
2019-01-21T11:49:29.854Z,5.97
2019-01-21T11:55:13.378Z,2.66
2019-01-21T12:00:35.044Z,2.37
2019-01-21T12:05:58.417Z,3.41
2019-01-21T12:11:18.795Z,2.38
2019-01-21T12:16:43.982Z,4.33
2019-01-21T12:22:11.805Z,3.17
2019-01-21T12:28:10.698Z,5.28
2019-01-21T12:34:06.850Z,3.15
2019-01-21T12:39:42.750Z,4.48
2019-01-21T12:45:17.201Z,2.95
2019-01-21T12:50:57.644Z,2.68
2019-01-21T12:56:35.427Z,2.13
2019-01-21T13:08:42.157Z,2.15
2019-01-21T13:14:07.301Z,3.55
2019-01-21T13:19:50.759Z,3.49
2019-01-21T13:25:56.157Z,4.43
2019-01-21T13:31:44.485Z,4.29
2019-01-21T13:37:16.911Z,3.67
2019-01-21T13:42:47.112Z,4.17
2019-01-21T13:48:24.385Z,5.09
2019-01-21T13:54:00.006Z,4.97
2019-01-21T13:59:49.407Z,4.46
2019-01-21T14:05:31.163Z,2.67
2019-01-21T14:11:09.830Z,3.08
2019-01-21T14:17:05.458Z,2.43
2019-01-21T14:22:37.771Z,1.26
2019-01-21T14:28:14.671Z,1.18
2019-01-21T14:33:41.081Z,0.58
2019-01-21T14:39:06.980Z,0.37
2019-01-21T14:44:42.545Z,0.10
2019-01-21T14:50:07.475Z,0.35
2019-01-21T14:55:33.957Z,0.19
2019-01-21T15:01:02.346Z,0.27
2019-01-21T15:06:45.207Z,0.29
2019-01-21T15:12:20.825Z,0.49
2019-01-21T15:18:00.599Z,0.39
2019-01-21T15:23:24.248Z,-0.19
2019-01-21T15:29:00.009Z,-0.69
2019-01-21T15:34:40.724Z,-1.10
2019-01-21T15:40:13.632Z,-1.23
2019-01-21T15:45:56.947Z,-1.95
2019-01-21T15:51:33.641Z,-2.07
2019-01-21T15:57:08.967Z,-2.45
2019-01-21T16:02:36.563Z,-2.82
2019-01-21T16:13:57.003Z,-3.44
2019-01-21T16:19:15.503Z,-3.66
2019-01-21T16:24:46.116Z,-3.65
2019-01-21T16:30:11.165Z,-3.81
2019-01-21T16:35:57.092Z,-4.09
2019-01-21T16:41:34.080Z,-4.16
2019-01-21T16:46:51.563Z,-4.34
2019-01-21T16:52:10.143Z,-4.31
2019-01-21T16:57:27.834Z,-4.55
2019-01-21T17:02:45.384Z,-4.58
2019-01-21T17:08:03.018Z,-4.72
2019-01-21T17:13:20.599Z,-4.87
2019-01-21T17:18:37.998Z,-4.82
2019-01-21T17:23:55.218Z,-4.94
2019-01-21T17:29:12.536Z,-5.25
2019-01-21T17:34:29.996Z,-5.33
2019-01-21T17:39:48.370Z,-5.41
2019-01-21T17:45:07.089Z,-5.57
2019-01-21T17:50:25.287Z,-5.63
2019-01-21T17:55:42.602Z,-5.70
2019-01-21T18:01:00.204Z,-5.80
2019-01-21T18:06:17.830Z,-5.95
2019-01-21T18:11:41.313Z,-6.00
2019-01-21T18:16:53.070Z,-6.13
2019-01-21T18:22:10.452Z,-6.15
2019-01-21T18:27:28.184Z,-6.29
2019-01-21T18:32:53.746Z,-6.42
2019-01-21T18:38:12.092Z,-6.34
2019-01-21T18:43:30.958Z,-6.49
2019-01-21T18:48:49.576Z,-6.65
2019-01-21T18:54:08.258Z,-6.80
2019-01-21T18:59:25.988Z,-6.71
2019-01-21T19:04:43.786Z,-6.89
2019-01-21T19:10:02.315Z,-6.98
2019-01-21T19:15:21.114Z,-6.81
2019-01-21T19:20:39.859Z,-6.87
2019-01-21T19:25:57.928Z,-6.88
2019-01-21T19:31:15.582Z,-7.03
2019-01-21T19:36:34.068Z,-7.22
2019-01-21T19:41:51.599Z,-7.18
2019-01-21T19:47:09.610Z,-7.24
2019-01-21T19:52:27.129Z,-7.32
2019-01-21T19:57:44.729Z,-7.31
2019-01-21T20:03:02.348Z,-7.34
2019-01-21T20:08:20.440Z,-7.50
2019-01-21T20:13:37.636Z,-7.46
2019-01-21T20:18:55.757Z,-7.39
2019-01-21T20:24:13.850Z,-7.51
2019-01-21T20:29:31.988Z,-7.67
2019-01-21T20:34:49.975Z,-7.60
2019-01-21T20:40:08.253Z,-7.47
2019-01-21T20:45:26.720Z,-7.41
2019-01-21T20:50:44.413Z,-7.40
2019-01-21T20:56:02.485Z,-7.33
2019-01-21T21:01:22.689Z,-7.35
2019-01-21T21:06:40.372Z,-7.50
2019-01-21T21:11:58.027Z,-7.79
2019-01-21T21:17:15.358Z,-7.75
2019-01-21T21:22:33.378Z,-7.67
2019-01-21T21:27:50.723Z,-7.42
2019-01-21T21:33:07.949Z,-7.62
2019-01-21T21:38:26.077Z,-7.88
2019-01-21T21:43:43.322Z,-7.79
2019-01-21T21:49:01.187Z,-7.67
2019-01-21T21:54:18.704Z,-8.03
2019-01-21T21:59:35.890Z,-8.19
2019-01-21T22:04:53.592Z,-8.03
2019-01-21T22:10:11.772Z,-8.03
2019-01-21T22:15:29.482Z,-8.03
2019-01-21T22:20:46.940Z,-8.31
2019-01-21T22:26:05.223Z,-8.31
2019-01-21T22:31:22.709Z,-8.38
2019-01-21T22:36:40.292Z,-8.42
2019-01-21T22:41:58.840Z,-8.30
2019-01-21T22:47:17.093Z,-8.22
2019-01-21T22:52:34.840Z,-8.16
2019-01-21T22:57:52.706Z,-8.35
2019-01-21T23:03:11.123Z,-8.40
2019-01-21T23:08:31.528Z,-8.35
2019-01-21T23:13:48.886Z,-8.25
2019-01-21T23:19:06.252Z,-8.37
2019-01-21T23:24:24.297Z,-8.32
2019-01-21T23:29:43.080Z,-8.19
2019-01-21T23:39:58.981Z,-8.61
2019-01-21T23:45:16.322Z,-8.52
2019-01-21T23:50:33.548Z,-8.45
2019-01-21T23:55:51.078Z,-8.36
